PWSweather.com
Personal Weather Stations
Station Observations
PRATO
PratoIT 59100

PratoIT 59100

Lat: 43.8956799, Lon: 11.0845155

Elevation: 164

Station Type: Davis Vantage Vue

http://www.meteoprato.it

High Low Average
Temperature 72.6°F22.6°C 48.6°F9.2°C 62.7°F17.1°C
Dew Point 48.2°F9.0°C 40.4°F4.7°C 45.3°F7.4°C
Winds 17.5 mph 28.2 kmh Calm Calm 8.0 mph E12.9 kmh E
Wind Gusts 33.0 mph53.1 kmh -- 16.0 mph25.7 kmh
Humidity 88% 39% 56%
Pressure 30.10 in1019.3 mb 29.91 in1012.9 mb -
Precipitation 0.00 in0.0 mm - -
Hour Temp Dew Point Humidity Winds Wind Gusts Pressure Precip Precip Rate Daily Precip Total
12:00 AM 52.6°F11.4°C 45.6°F7.6°C 77% Calm Calm 1.0 mph1.6 kmh 30.09 in1019.0 mb 0.00 in0.0 mm 0.00 in0.0 mm 0.00 in0.0 mm
12:05 AM 52.6°F11.4°C 45.6°F7.6°C 77% Calm Calm 1.0 mph1.6 kmh 30.09 in1019.0 mb 0.00 in0.0 mm 0.00 in0.0 mm 0.00 in0.0 mm
12:10 AM 52.8°F11.6°C 45.8°F7.7°C 77% Calm Calm 1.0 mph1.6 kmh 30.09 in1019.0 mb 0.00 in0.0 mm 0.00 in0.0 mm 0.00 in0.0 mm
12:15 AM 52.7°F11.5°C 45.7°F7.6°C 77% Calm Calm 1.0 mph1.6 kmh 30.09 in1019.0 mb 0.00 in0.0 mm 0.00 in0.0 mm 0.00 in0.0 mm
12:20 AM 52.4°F11.3°C 45.4°F7.4°C 77% 0.2 mph NNE0.3 kmh NNE 3.0 mph4.8 kmh 30.09 in1019.0 mb 0.00 in0.0 mm 0.00 in0.0 mm 0.00 in0.0 mm
12:25 AM 52.1°F11.2°C 45.4°F7.4°C 78% 0.7 mph NNE1.1 kmh NNE 3.0 mph4.8 kmh 30.09 in1019.0 mb 0.00 in0.0 mm 0.00 in0.0 mm 0.00 in0.0 mm
12:30 AM 52.0°F11.1°C 45.7°F7.6°C 79% 1.0 mph NNE1.6 kmh NNE 2.0 mph3.2 kmh 30.09 in1019.0 mb 0.00 in0.0 mm 0.00 in0.0 mm 0.00 in0.0 mm
12:35 AM 52.0°F11.1°C 45.7°F7.6°C 79% 0.5 mph NNE0.8 kmh NNE 2.0 mph3.2 kmh 30.09 in1019.0 mb 0.00 in0.0 mm 0.00 in0.0 mm 0.00 in0.0 mm
12:40 AM 52.0°F11.1°C 45.7°F7.6°C 79% Calm Calm 2.0 mph3.2 kmh 30.10 in1019.3 mb 0.00 in0.0 mm 0.00 in0.0 mm 0.00 in0.0 mm
12:45 AM 51.9°F11.1°C 45.6°F7.6°C 79% 0.5 mph NNE0.8 kmh NNE 2.0 mph3.2 kmh 30.10 in1019.3 mb 0.00 in0.0 mm 0.00 in0.0 mm 0.00 in0.0 mm
12:50 AM 51.7°F10.9°C 45.4°F7.4°C 79% 1.0 mph NNE1.6 kmh NNE 2.0 mph3.2 kmh 30.09 in1019.0 mb 0.00 in0.0 mm 0.00 in0.0 mm 0.00 in0.0 mm
12:55 AM 51.6°F10.9°C 45.3°F7.4°C 79% 1.0 mph NNE1.6 kmh NNE 3.0 mph4.8 kmh 30.09 in1019.0 mb 0.00 in0.0 mm 0.00 in0.0 mm 0.00 in0.0 mm
01:00 AM 51.6°F10.9°C 45.3°F7.4°C 79% 1.0 mph NE1.6 kmh NE 3.0 mph4.8 kmh 30.09 in1019.0 mb 0.00 in0.0 mm 0.00 in0.0 mm 0.00 in0.0 mm
01:05 AM 51.6°F10.9°C 45.6°F7.6°C 80% 1.0 mph NE1.6 kmh NE 2.0 mph3.2 kmh 30.09 in1019.0 mb 0.00 in0.0 mm 0.00 in0.0 mm 0.00 in0.0 mm
01:10 AM 51.4°F10.8°C 45.4°F7.4°C 80% 0.6 mph NE1.0 kmh NE 1.0 mph1.6 kmh 30.09 in1019.0 mb 0.00 in0.0 mm 0.00 in0.0 mm 0.00 in0.0 mm
01:15 AM 51.3°F10.7°C 45.3°F7.4°C 80% 0.1 mph 0.2 kmh -- 30.09 in1019.0 mb 0.00 in0.0 mm 0.00 in0.0 mm 0.00 in0.0 mm
01:20 AM 51.3°F10.7°C 45.7°F7.6°C 81% Calm Calm -- 30.09 in1019.0 mb 0.00 in0.0 mm 0.00 in0.0 mm 0.00 in0.0 mm
01:25 AM 51.3°F10.7°C 45.3°F7.4°C 80% Calm Calm 3.0 mph4.8 kmh 30.09 in1019.0 mb 0.00 in0.0 mm 0.00 in0.0 mm 0.00 in0.0 mm
01:30 AM 51.2°F10.7°C 45.2°F7.3°C 80% Calm Calm 3.0 mph4.8 kmh 30.09 in1019.0 mb 0.00 in0.0 mm 0.00 in0.0 mm 0.00 in0.0 mm
01:35 AM 51.2°F10.7°C 45.6°F7.6°C 81% Calm Calm 1.0 mph1.6 kmh 30.09 in1019.0 mb 0.00 in0.0 mm 0.00 in0.0 mm 0.00 in0.0 mm
01:40 AM 51.3°F10.7°C 45.3°F7.4°C 80% Calm Calm 1.0 mph1.6 kmh 30.09 in1019.0 mb 0.00 in0.0 mm 0.00 in0.0 mm 0.00 in0.0 mm
01:45 AM 51.4°F10.8°C 45.4°F7.4°C 80% Calm Calm 1.0 mph1.6 kmh 30.09 in1019.0 mb 0.00 in0.0 mm 0.00 in0.0 mm 0.00 in0.0 mm
01:50 AM 51.4°F10.8°C 45.4°F7.4°C 80% Calm Calm 2.0 mph3.2 kmh 30.08 in1018.6 mb 0.00 in0.0 mm 0.00 in0.0 mm 0.00 in0.0 mm
01:55 AM 51.3°F10.7°C 45.3°F7.4°C 80% Calm Calm 2.0 mph3.2 kmh 30.08 in1018.6 mb 0.00 in0.0 mm 0.00 in0.0 mm 0.00 in0.0 mm
02:00 AM 51.1°F10.6°C 45.1°F7.3°C 80% Calm Calm -- 30.08 in1018.6 mb 0.00 in0.0 mm 0.00 in0.0 mm 0.00 in0.0 mm
02:05 AM 50.9°F10.5°C 44.9°F7.2°C 80% Calm Calm 1.0 mph1.6 kmh 30.09 in1019.0 mb 0.00 in0.0 mm 0.00 in0.0 mm 0.00 in0.0 mm
02:10 AM 51.0°F10.6°C 45.0°F7.2°C 80% Calm Calm 1.0 mph1.6 kmh 30.08 in1018.6 mb 0.00 in0.0 mm 0.00 in0.0 mm 0.00 in0.0 mm
02:15 AM 51.1°F10.6°C 45.1°F7.3°C 80% Calm Calm 1.0 mph1.6 kmh 30.08 in1018.6 mb 0.00 in0.0 mm 0.00 in0.0 mm 0.00 in0.0 mm
02:20 AM 51.2°F10.7°C 45.2°F7.3°C 80% Calm Calm 2.0 mph3.2 kmh 30.08 in1018.6 mb 0.00 in0.0 mm 0.00 in0.0 mm 0.00 in0.0 mm
02:25 AM 51.1°F10.6°C 45.1°F7.3°C 80% Calm Calm 2.0 mph3.2 kmh 30.08 in1018.6 mb 0.00 in0.0 mm 0.00 in0.0 mm 0.00 in0.0 mm
02:30 AM 51.1°F10.6°C 45.1°F7.3°C 80% Calm Calm 1.0 mph1.6 kmh 30.08 in1018.6 mb 0.00 in0.0 mm 0.00 in0.0 mm 0.00 in0.0 mm
02:35 AM 50.9°F10.5°C 45.3°F7.4°C 81% Calm Calm 1.0 mph1.6 kmh 30.08 in1018.6 mb 0.00 in0.0 mm 0.00 in0.0 mm 0.00 in0.0 mm
02:40 AM 50.8°F10.4°C 45.2°F7.3°C 81% Calm Calm 1.0 mph1.6 kmh 30.08 in1018.6 mb 0.00 in0.0 mm 0.00 in0.0 mm 0.00 in0.0 mm
02:45 AM 50.6°F10.3°C 45.0°F7.2°C 81% Calm Calm -- 30.08 in1018.6 mb 0.00 in0.0 mm 0.00 in0.0 mm 0.00 in0.0 mm
02:50 AM 50.3°F10.2°C 45.0°F7.2°C 82% Calm Calm -- 30.07 in1018.3 mb 0.00 in0.0 mm 0.00 in0.0 mm 0.00 in0.0 mm
02:55 AM 50.2°F10.1°C 45.6°F7.6°C 84% Calm Calm 1.0 mph1.6 kmh 30.07 in1018.3 mb 0.00 in0.0 mm 0.00 in0.0 mm 0.00 in0.0 mm
03:00 AM 50.1°F10.1°C 45.5°F7.5°C 84% Calm Calm 1.0 mph1.6 kmh 30.07 in1018.3 mb 0.00 in0.0 mm 0.00 in0.0 mm 0.00 in0.0 mm
03:05 AM 50.2°F10.1°C 45.6°F7.6°C 84% Calm Calm 2.0 mph3.2 kmh 30.07 in1018.3 mb 0.00 in0.0 mm 0.00 in0.0 mm 0.00 in0.0 mm
03:10 AM 50.2°F10.1°C 45.9°F7.7°C 85% Calm Calm 2.0 mph3.2 kmh 30.07 in1018.3 mb 0.00 in0.0 mm 0.00 in0.0 mm 0.00 in0.0 mm
03:15 AM 50.2°F10.1°C 45.6°F7.6°C 84% Calm Calm 2.0 mph3.2 kmh 30.07 in1018.3 mb 0.00 in0.0 mm 0.00 in0.0 mm 0.00 in0.0 mm
03:20 AM 50.2°F10.1°C 45.9°F7.7°C 85% Calm Calm 2.0 mph3.2 kmh 30.07 in1018.3 mb 0.00 in0.0 mm 0.00 in0.0 mm 0.00 in0.0 mm
03:25 AM 50.3°F10.2°C 46.0°F7.8°C 85% Calm Calm 2.0 mph3.2 kmh 30.07 in1018.3 mb 0.00 in0.0 mm 0.00 in0.0 mm 0.00 in0.0 mm
03:30 AM 50.1°F10.1°C 45.8°F7.7°C 85% 0.4 mph W0.6 kmh W 2.0 mph3.2 kmh 30.08 in1018.6 mb 0.00 in0.0 mm 0.00 in0.0 mm 0.00 in0.0 mm
03:35 AM 49.8°F9.9°C 45.5°F7.5°C 85% 0.4 mph W0.6 kmh W 1.0 mph1.6 kmh 30.07 in1018.3 mb 0.00 in0.0 mm 0.00 in0.0 mm 0.00 in0.0 mm
03:40 AM 49.7°F9.8°C 45.7°F7.6°C 86% Calm Calm 1.0 mph1.6 kmh 30.07 in1018.3 mb 0.00 in0.0 mm 0.00 in0.0 mm 0.00 in0.0 mm
03:45 AM 49.8°F9.9°C 45.8°F7.7°C 86% Calm Calm 1.0 mph1.6 kmh 30.08 in1018.6 mb 0.00 in0.0 mm 0.00 in0.0 mm 0.00 in0.0 mm
03:50 AM 49.9°F9.9°C 46.2°F7.9°C 87% Calm Calm 2.0 mph3.2 kmh 30.08 in1018.6 mb 0.00 in0.0 mm 0.00 in0.0 mm 0.00 in0.0 mm
03:55 AM 49.8°F9.9°C 45.8°F7.7°C 86% Calm Calm 2.0 mph3.2 kmh 30.08 in1018.6 mb 0.00 in0.0 mm 0.00 in0.0 mm 0.00 in0.0 mm
04:00 AM 49.6°F9.8°C 45.6°F7.6°C 86% Calm Calm -- 30.08 in1018.6 mb 0.00 in0.0 mm 0.00 in0.0 mm 0.00 in0.0 mm
04:05 AM 49.7°F9.8°C 46.0°F7.8°C 87% Calm Calm -- 30.08 in1018.6 mb 0.00 in0.0 mm 0.00 in0.0 mm 0.00 in0.0 mm
04:10 AM 49.8°F9.9°C 46.1°F7.8°C 87% Calm Calm -- 30.07 in1018.3 mb 0.00 in0.0 mm 0.00 in0.0 mm 0.00 in0.0 mm
04:15 AM 49.4°F9.7°C 45.4°F7.4°C 86% Calm Calm -- 30.07 in1018.3 mb 0.00 in0.0 mm 0.00 in0.0 mm 0.00 in0.0 mm
04:20 AM 49.1°F9.5°C 45.4°F7.4°C 87% Calm Calm -- 30.07 in1018.3 mb 0.00 in0.0 mm 0.00 in0.0 mm 0.00 in0.0 mm
04:25 AM 48.8°F9.3°C 45.1°F7.3°C 87% Calm Calm -- 30.07 in1018.3 mb 0.00 in0.0 mm 0.00 in0.0 mm 0.00 in0.0 mm
04:30 AM 48.6°F9.2°C 45.2°F7.3°C 88% Calm Calm -- 30.07 in1018.3 mb 0.00 in0.0 mm 0.00 in0.0 mm 0.00 in0.0 mm
04:35 AM 48.7°F9.3°C 45.3°F7.4°C 88% Calm Calm -- 30.07 in1018.3 mb 0.00 in0.0 mm 0.00 in0.0 mm 0.00 in0.0 mm
04:40 AM 48.8°F9.3°C 45.4°F7.4°C 88% 0.1 mph WSW0.2 kmh WSW 4.0 mph6.4 kmh 30.07 in1018.3 mb 0.00 in0.0 mm 0.00 in0.0 mm 0.00 in0.0 mm
04:45 AM 49.1°F9.5°C 45.7°F7.6°C 88% 0.7 mph WSW1.1 kmh WSW 4.0 mph6.4 kmh 30.06 in1017.9 mb 0.00 in0.0 mm 0.00 in0.0 mm 0.00 in0.0 mm
04:50 AM 49.3°F9.6°C 45.9°F7.7°C 88% 1.6 mph SW2.6 kmh SW 4.0 mph6.4 kmh 30.07 in1018.3 mb 0.00 in0.0 mm 0.00 in0.0 mm 0.00 in0.0 mm
04:55 AM 49.7°F9.8°C 46.0°F7.8°C 87% 2.0 mph SW3.2 kmh SW 4.0 mph6.4 kmh 30.07 in1018.3 mb 0.00 in0.0 mm 0.00 in0.0 mm 0.00 in0.0 mm
05:00 AM 49.8°F9.9°C 46.1°F7.8°C 87% 2.1 mph SW3.4 kmh SW 4.0 mph6.4 kmh 30.07 in1018.3 mb 0.00 in0.0 mm 0.00 in0.0 mm 0.00 in0.0 mm
05:05 AM 50.2°F10.1°C 46.2°F7.9°C 86% 2.1 mph SW3.4 kmh SW 5.0 mph8.0 kmh 30.07 in1018.3 mb 0.00 in0.0 mm 0.00 in0.0 mm 0.00 in0.0 mm
05:10 AM 50.3°F10.2°C 45.6°F7.6°C 84% 2.0 mph SW3.2 kmh SW 5.0 mph8.0 kmh 30.07 in1018.3 mb 0.00 in0.0 mm 0.00 in0.0 mm 0.00 in0.0 mm
05:15 AM 49.7°F9.8°C 45.4°F7.4°C 85% 1.8 mph WSW2.9 kmh WSW 4.0 mph6.4 kmh 30.07 in1018.3 mb 0.00 in0.0 mm 0.00 in0.0 mm 0.00 in0.0 mm
05:20 AM 49.3°F9.6°C 45.0°F7.2°C 85% 1.3 mph WSW2.1 kmh WSW 4.0 mph6.4 kmh 30.07 in1018.3 mb 0.00 in0.0 mm 0.00 in0.0 mm 0.00 in0.0 mm
05:25 AM 48.9°F9.4°C 45.2°F7.3°C 87% 1.2 mph W1.9 kmh W 5.0 mph8.0 kmh 30.07 in1018.3 mb 0.00 in0.0 mm 0.00 in0.0 mm 0.00 in0.0 mm
05:30 AM 48.7°F9.3°C 45.0°F7.2°C 87% 1.3 mph W2.1 kmh W 5.0 mph8.0 kmh 30.07 in1018.3 mb 0.00 in0.0 mm 0.00 in0.0 mm 0.00 in0.0 mm
05:35 AM 48.6°F9.2°C 45.2°F7.3°C 88% 0.9 mph W1.4 kmh W 3.0 mph4.8 kmh 30.07 in1018.3 mb 0.00 in0.0 mm 0.00 in0.0 mm 0.00 in0.0 mm
05:40 AM 48.6°F9.2°C 45.2°F7.3°C 88% 0.6 mph WNW1.0 kmh WNW 3.0 mph4.8 kmh 30.07 in1018.3 mb 0.00 in0.0 mm 0.00 in0.0 mm 0.00 in0.0 mm
05:45 AM 48.9°F9.4°C 45.5°F7.5°C 88% 0.8 mph NNW1.3 kmh NNW 3.0 mph4.8 kmh 30.07 in1018.3 mb 0.00 in0.0 mm 0.00 in0.0 mm 0.00 in0.0 mm
05:50 AM 49.1°F9.5°C 45.4°F7.4°C 87% 0.9 mph N1.4 kmh N 3.0 mph4.8 kmh 30.07 in1018.3 mb 0.00 in0.0 mm 0.00 in0.0 mm 0.00 in0.0 mm
05:55 AM 49.3°F9.6°C 45.6°F7.6°C 87% 0.4 mph NNW0.6 kmh NNW 1.0 mph1.6 kmh 30.07 in1018.3 mb 0.00 in0.0 mm 0.00 in0.0 mm 0.00 in0.0 mm
06:00 AM 49.5°F9.7°C 45.5°F7.5°C 86% Calm Calm 3.0 mph4.8 kmh 30.07 in1018.3 mb 0.00 in0.0 mm 0.00 in0.0 mm 0.00 in0.0 mm
06:05 AM 49.6°F9.8°C 45.6°F7.6°C 86% Calm Calm 3.0 mph4.8 kmh 30.07 in1018.3 mb 0.00 in0.0 mm 0.00 in0.0 mm 0.00 in0.0 mm
06:10 AM 49.8°F9.9°C 45.8°F7.7°C 86% 0.4 mph WSW0.6 kmh WSW 4.0 mph6.4 kmh 30.07 in1018.3 mb 0.00 in0.0 mm 0.00 in0.0 mm 0.00 in0.0 mm
06:15 AM 50.2°F10.1°C 45.9°F7.7°C 85% 1.0 mph WSW1.6 kmh WSW 4.0 mph6.4 kmh 30.07 in1018.3 mb 0.00 in0.0 mm 0.00 in0.0 mm 0.00 in0.0 mm
06:20 AM 51.4°F10.8°C 46.4°F8.0°C 83% 1.5 mph W2.4 kmh W 7.0 mph11.3 kmh 30.06 in1017.9 mb 0.00 in0.0 mm 0.00 in0.0 mm 0.00 in0.0 mm
06:25 AM 54.6°F12.6°C 46.5°F8.1°C 74% 2.2 mph NE3.5 kmh NE 13.0 mph20.9 kmh 30.06 in1017.9 mb 0.00 in0.0 mm 0.00 in0.0 mm 0.00 in0.0 mm
06:30 AM 56.1°F13.4°C 46.4°F8.0°C 70% 3.8 mph NE6.1 kmh NE 13.0 mph20.9 kmh 30.06 in1017.9 mb 0.00 in0.0 mm 0.00 in0.0 mm 0.00 in0.0 mm
06:35 AM 57.8°F14.3°C 46.5°F8.1°C 66% 5.7 mph NE9.2 kmh NE 19.0 mph30.6 kmh 30.05 in1017.6 mb 0.00 in0.0 mm 0.00 in0.0 mm 0.00 in0.0 mm
06:40 AM 58.8°F14.9°C 46.2°F7.9°C 63% 7.4 mph NE11.9 kmh NE 19.0 mph30.6 kmh 30.05 in1017.6 mb 0.00 in0.0 mm 0.00 in0.0 mm 0.00 in0.0 mm
06:45 AM 59.5°F15.3°C 46.5°F8.1°C 62% 9.3 mph NE15.0 kmh NE 20.0 mph32.2 kmh 30.05 in1017.6 mb 0.00 in0.0 mm 0.00 in0.0 mm 0.00 in0.0 mm
06:50 AM 59.8°F15.4°C 46.3°F7.9°C 61% 10.3 mph NE16.6 kmh NE 20.0 mph32.2 kmh 30.06 in1017.9 mb 0.00 in0.0 mm 0.00 in0.0 mm 0.00 in0.0 mm
06:55 AM 60.2°F15.7°C 46.3°F7.9°C 60% 10.7 mph NE17.2 kmh NE 21.0 mph33.8 kmh 30.06 in1017.9 mb 0.00 in0.0 mm 0.00 in0.0 mm 0.00 in0.0 mm
07:00 AM 60.6°F15.9°C 46.2°F7.9°C 59% 10.8 mph NE17.4 kmh NE 21.0 mph33.8 kmh 30.05 in1017.6 mb 0.00 in0.0 mm 0.00 in0.0 mm 0.00 in0.0 mm
07:05 AM 61.1°F16.2°C 46.2°F7.9°C 58% 10.3 mph NE16.6 kmh NE 18.0 mph29.0 kmh 30.06 in1017.9 mb 0.00 in0.0 mm 0.00 in0.0 mm 0.00 in0.0 mm
07:10 AM 61.4°F16.3°C 46.0°F7.8°C 57% 10.0 mph NE16.1 kmh NE 18.0 mph29.0 kmh 30.05 in1017.6 mb 0.00 in0.0 mm 0.00 in0.0 mm 0.00 in0.0 mm
07:15 AM 61.7°F16.5°C 46.3°F7.9°C 57% 9.8 mph NE15.8 kmh NE 15.0 mph24.1 kmh 30.06 in1017.9 mb 0.00 in0.0 mm 0.00 in0.0 mm 0.00 in0.0 mm
07:20 AM 62.0°F16.7°C 46.1°F7.8°C 56% 9.2 mph NE14.8 kmh NE 16.0 mph25.7 kmh 30.05 in1017.6 mb 0.00 in0.0 mm 0.00 in0.0 mm 0.00 in0.0 mm
07:25 AM 62.4°F16.9°C 46.0°F7.8°C 55% 8.6 mph NE13.8 kmh NE 20.0 mph32.2 kmh 30.05 in1017.6 mb 0.00 in0.0 mm 0.00 in0.0 mm 0.00 in0.0 mm
07:30 AM 62.6°F17.0°C 45.7°F7.6°C 54% 9.5 mph NE15.3 kmh NE 20.0 mph32.2 kmh 30.05 in1017.6 mb 0.00 in0.0 mm 0.00 in0.0 mm 0.00 in0.0 mm
07:35 AM 62.8°F17.1°C 45.9°F7.7°C 54% 10.7 mph NE17.2 kmh NE 20.0 mph32.2 kmh 30.05 in1017.6 mb 0.00 in0.0 mm 0.00 in0.0 mm 0.00 in0.0 mm
07:40 AM 62.9°F17.2°C 46.0°F7.8°C 54% 11.2 mph NE18.0 kmh NE 21.0 mph33.8 kmh 30.05 in1017.6 mb 0.00 in0.0 mm 0.00 in0.0 mm 0.00 in0.0 mm
07:45 AM 63.2°F17.3°C 45.8°F7.7°C 53% 12.2 mph NE19.6 kmh NE 22.0 mph35.4 kmh 30.05 in1017.6 mb 0.00 in0.0 mm 0.00 in0.0 mm 0.00 in0.0 mm
07:50 AM 63.3°F17.4°C 45.9°F7.7°C 53% 12.8 mph NE20.6 kmh NE 22.0 mph35.4 kmh 30.05 in1017.6 mb 0.00 in0.0 mm 0.00 in0.0 mm 0.00 in0.0 mm
07:55 AM 63.5°F17.5°C 46.1°F7.8°C 53% 12.4 mph NE20.0 kmh NE 21.0 mph33.8 kmh 30.05 in1017.6 mb 0.00 in0.0 mm 0.00 in0.0 mm 0.00 in0.0 mm
08:00 AM 63.7°F17.6°C 46.2°F7.9°C 53% 12.1 mph NE19.5 kmh NE 21.0 mph33.8 kmh 30.05 in1017.6 mb 0.00 in0.0 mm 0.00 in0.0 mm 0.00 in0.0 mm
08:05 AM 63.8°F17.7°C 46.3°F7.9°C 53% 12.5 mph NE20.1 kmh NE 21.0 mph33.8 kmh 30.04 in1017.3 mb 0.00 in0.0 mm 0.00 in0.0 mm 0.00 in0.0 mm
08:10 AM 63.9°F17.7°C 45.9°F7.7°C 52% 13.2 mph NE21.2 kmh NE 25.0 mph40.2 kmh 30.05 in1017.6 mb 0.00 in0.0 mm 0.00 in0.0 mm 0.00 in0.0 mm
08:15 AM 64.0°F17.8°C 46.5°F8.1°C 53% 13.8 mph NE22.2 kmh NE 25.0 mph40.2 kmh 30.05 in1017.6 mb 0.00 in0.0 mm 0.00 in0.0 mm 0.00 in0.0 mm
08:20 AM 64.2°F17.9°C 46.7°F8.2°C 53% 14.6 mph NE23.5 kmh NE 24.0 mph38.6 kmh 30.05 in1017.6 mb 0.00 in0.0 mm 0.00 in0.0 mm 0.00 in0.0 mm
08:25 AM 64.3°F17.9°C 46.3°F7.9°C 52% 14.1 mph NE22.7 kmh NE 23.0 mph37.0 kmh 30.05 in1017.6 mb 0.00 in0.0 mm 0.00 in0.0 mm 0.00 in0.0 mm
08:30 AM 64.4°F18.0°C 46.4°F8.0°C 52% 13.2 mph NE21.2 kmh NE 23.0 mph37.0 kmh 30.05 in1017.6 mb 0.00 in0.0 mm 0.00 in0.0 mm 0.00 in0.0 mm
08:35 AM 64.5°F18.1°C 46.0°F7.8°C 51% 13.6 mph NE21.9 kmh NE 23.0 mph37.0 kmh 30.05 in1017.6 mb 0.00 in0.0 mm 0.00 in0.0 mm 0.00 in0.0 mm
08:40 AM 64.6°F18.1°C 46.1°F7.8°C 51% 13.7 mph NE22.0 kmh NE 23.0 mph37.0 kmh 30.05 in1017.6 mb 0.00 in0.0 mm 0.00 in0.0 mm 0.00 in0.0 mm
08:45 AM 64.7°F18.2°C 46.7°F8.2°C 52% 13.5 mph NE21.7 kmh NE 21.0 mph33.8 kmh 30.05 in1017.6 mb 0.00 in0.0 mm 0.00 in0.0 mm 0.00 in0.0 mm
08:50 AM 64.9°F18.3°C 46.8°F8.2°C 52% 13.7 mph NE22.0 kmh NE 23.0 mph37.0 kmh 30.05 in1017.6 mb 0.00 in0.0 mm 0.00 in0.0 mm 0.00 in0.0 mm
08:55 AM 64.9°F18.3°C 46.3°F7.9°C 51% 13.7 mph NE22.0 kmh NE 23.0 mph37.0 kmh 30.05 in1017.6 mb 0.00 in0.0 mm 0.00 in0.0 mm 0.00 in0.0 mm
09:00 AM 65.2°F18.4°C 46.6°F8.1°C 51% 13.0 mph NE20.9 kmh NE 22.0 mph35.4 kmh 30.05 in1017.6 mb 0.00 in0.0 mm 0.00 in0.0 mm 0.00 in0.0 mm
09:05 AM 65.4°F18.6°C 46.3°F7.9°C 50% 12.1 mph NE19.5 kmh NE 21.0 mph33.8 kmh 30.05 in1017.6 mb 0.00 in0.0 mm 0.00 in0.0 mm 0.00 in0.0 mm
09:10 AM 65.5°F18.6°C 46.4°F8.0°C 50% 11.5 mph NE18.5 kmh NE 20.0 mph32.2 kmh 30.05 in1017.6 mb 0.00 in0.0 mm 0.00 in0.0 mm 0.00 in0.0 mm
09:15 AM 65.6°F18.7°C 46.5°F8.1°C 50% 11.4 mph NE18.3 kmh NE 23.0 mph37.0 kmh 30.06 in1017.9 mb 0.00 in0.0 mm 0.00 in0.0 mm 0.00 in0.0 mm
09:20 AM 66.0°F18.9°C 46.8°F8.2°C 50% 11.8 mph NE19.0 kmh NE 23.0 mph37.0 kmh 30.05 in1017.6 mb 0.00 in0.0 mm 0.00 in0.0 mm 0.00 in0.0 mm
09:25 AM 66.1°F18.9°C 45.8°F7.7°C 48% 11.6 mph NE18.7 kmh NE 21.0 mph33.8 kmh 30.06 in1017.9 mb 0.00 in0.0 mm 0.00 in0.0 mm 0.00 in0.0 mm
09:30 AM 65.9°F18.8°C 46.2°F7.9°C 49% 11.4 mph NE18.3 kmh NE 26.0 mph41.8 kmh 30.05 in1017.6 mb 0.00 in0.0 mm 0.00 in0.0 mm 0.00 in0.0 mm
09:35 AM 66.6°F19.2°C 46.8°F8.2°C 49% 12.2 mph NE19.6 kmh NE 26.0 mph41.8 kmh 30.05 in1017.6 mb 0.00 in0.0 mm 0.00 in0.0 mm 0.00 in0.0 mm
09:40 AM 66.6°F19.2°C 46.3°F7.9°C 48% 12.2 mph NE19.6 kmh NE 20.0 mph32.2 kmh 30.06 in1017.9 mb 0.00 in0.0 mm 0.00 in0.0 mm 0.00 in0.0 mm
09:45 AM 66.7°F19.3°C 46.9°F8.3°C 49% 11.4 mph NE18.3 kmh NE 22.0 mph35.4 kmh 30.05 in1017.6 mb 0.00 in0.0 mm 0.00 in0.0 mm 0.00 in0.0 mm
09:50 AM 66.9°F19.4°C 46.6°F8.1°C 48% 11.3 mph NE18.2 kmh NE 22.0 mph35.4 kmh 30.05 in1017.6 mb 0.00 in0.0 mm 0.00 in0.0 mm 0.00 in0.0 mm
09:55 AM 67.0°F19.4°C 46.7°F8.2°C 48% 11.3 mph NE18.2 kmh NE 19.0 mph30.6 kmh 30.05 in1017.6 mb 0.00 in0.0 mm 0.00 in0.0 mm 0.00 in0.0 mm
10:00 AM 67.0°F19.4°C 46.7°F8.2°C 48% 11.1 mph NE17.9 kmh NE 18.0 mph29.0 kmh 30.05 in1017.6 mb 0.00 in0.0 mm 0.00 in0.0 mm 0.00 in0.0 mm
10:05 AM 67.2°F19.6°C 46.8°F8.2°C 48% 11.0 mph NE17.7 kmh NE 18.0 mph29.0 kmh 30.05 in1017.6 mb 0.00 in0.0 mm 0.00 in0.0 mm 0.00 in0.0 mm
10:10 AM 67.7°F19.8°C 46.7°F8.2°C 47% 10.7 mph NE17.2 kmh NE 18.0 mph29.0 kmh 30.05 in1017.6 mb 0.00 in0.0 mm 0.00 in0.0 mm 0.00 in0.0 mm
10:15 AM 67.6°F19.8°C 46.1°F7.8°C 46% 10.2 mph NE16.4 kmh NE 21.0 mph33.8 kmh 30.05 in1017.6 mb 0.00 in0.0 mm 0.00 in0.0 mm 0.00 in0.0 mm
10:20 AM 67.6°F19.8°C 46.6°F8.1°C 47% 10.9 mph NE17.5 kmh NE 21.0 mph33.8 kmh 30.05 in1017.6 mb 0.00 in0.0 mm 0.00 in0.0 mm 0.00 in0.0 mm
10:25 AM 68.2°F20.1°C 46.6°F8.1°C 46% 11.9 mph NE19.2 kmh NE 19.0 mph30.6 kmh 30.05 in1017.6 mb 0.00 in0.0 mm 0.00 in0.0 mm 0.00 in0.0 mm
10:30 AM 68.5°F20.3°C 46.9°F8.3°C 46% 10.9 mph NE17.5 kmh NE 16.0 mph25.7 kmh 30.05 in1017.6 mb 0.00 in0.0 mm 0.00 in0.0 mm 0.00 in0.0 mm
10:35 AM 68.4°F20.2°C 46.2°F7.9°C 45% 9.3 mph NE15.0 kmh NE 21.0 mph33.8 kmh 30.05 in1017.6 mb 0.00 in0.0 mm 0.00 in0.0 mm 0.00 in0.0 mm
10:40 AM 68.4°F20.2°C 46.2°F7.9°C 45% 9.8 mph NE15.8 kmh NE 22.0 mph35.4 kmh 30.05 in1017.6 mb 0.00 in0.0 mm 0.00 in0.0 mm 0.00 in0.0 mm
10:45 AM 68.3°F20.2°C 46.7°F8.2°C 46% 11.7 mph NE18.8 kmh NE 22.0 mph35.4 kmh 30.05 in1017.6 mb 0.00 in0.0 mm 0.00 in0.0 mm 0.00 in0.0 mm
10:50 AM 68.6°F20.3°C 46.4°F8.0°C 45% 12.6 mph NE20.3 kmh NE 21.0 mph33.8 kmh 30.05 in1017.6 mb 0.00 in0.0 mm 0.00 in0.0 mm 0.00 in0.0 mm
10:55 AM 68.4°F20.2°C 46.2°F7.9°C 45% 12.7 mph NE20.4 kmh NE 22.0 mph35.4 kmh 30.05 in1017.6 mb 0.00 in0.0 mm 0.00 in0.0 mm 0.00 in0.0 mm
11:00 AM 68.8°F20.4°C 47.2°F8.4°C 46% 13.0 mph NE20.9 kmh NE 22.0 mph35.4 kmh 30.04 in1017.3 mb 0.00 in0.0 mm 0.00 in0.0 mm 0.00 in0.0 mm
11:05 AM 68.8°F20.4°C 46.6°F8.1°C 45% 12.9 mph NE20.8 kmh NE 23.0 mph37.0 kmh 30.05 in1017.6 mb 0.00 in0.0 mm 0.00 in0.0 mm 0.00 in0.0 mm
11:10 AM 69.1°F20.6°C 46.9°F8.3°C 45% 12.4 mph NE20.0 kmh NE 23.0 mph37.0 kmh 30.05 in1017.6 mb 0.00 in0.0 mm 0.00 in0.0 mm 0.00 in0.0 mm
11:15 AM 69.4°F20.8°C 46.5°F8.1°C 44% 11.5 mph NE18.5 kmh NE 19.0 mph30.6 kmh 30.05 in1017.6 mb 0.00 in0.0 mm 0.00 in0.0 mm 0.00 in0.0 mm
11:20 AM 69.2°F20.7°C 46.4°F8.0°C 44% 11.0 mph NE17.7 kmh NE 21.0 mph33.8 kmh 30.05 in1017.6 mb 0.00 in0.0 mm 0.00 in0.0 mm 0.00 in0.0 mm
11:25 AM 69.6°F20.9°C 46.7°F8.2°C 44% 11.2 mph NE18.0 kmh NE 21.0 mph33.8 kmh 30.05 in1017.6 mb 0.00 in0.0 mm 0.00 in0.0 mm 0.00 in0.0 mm
11:30 AM 69.6°F20.9°C 46.7°F8.2°C 44% 11.4 mph NE18.3 kmh NE 21.0 mph33.8 kmh 30.05 in1017.6 mb 0.00 in0.0 mm 0.00 in0.0 mm 0.00 in0.0 mm
11:35 AM 70.1°F21.2°C 47.2°F8.4°C 44% 10.7 mph NE17.2 kmh NE 19.0 mph30.6 kmh 30.05 in1017.6 mb 0.00 in0.0 mm 0.00 in0.0 mm 0.00 in0.0 mm
11:40 AM 69.9°F21.1°C 46.4°F8.0°C 43% 10.0 mph NE16.1 kmh NE 20.0 mph32.2 kmh 30.04 in1017.3 mb 0.00 in0.0 mm 0.00 in0.0 mm 0.00 in0.0 mm
11:45 AM 70.0°F21.1°C 47.1°F8.4°C 44% 10.3 mph NE16.6 kmh NE 20.0 mph32.2 kmh 30.04 in1017.3 mb 0.00 in0.0 mm 0.00 in0.0 mm 0.00 in0.0 mm
11:50 AM 70.3°F21.3°C 47.3°F8.5°C 44% 10.5 mph NE16.9 kmh NE 18.0 mph29.0 kmh 30.04 in1017.3 mb 0.00 in0.0 mm 0.00 in0.0 mm 0.00 in0.0 mm
11:55 AM 70.3°F21.3°C 46.7°F8.2°C 43% 10.2 mph NE16.4 kmh NE 21.0 mph33.8 kmh 30.03 in1016.9 mb 0.00 in0.0 mm 0.00 in0.0 mm 0.00 in0.0 mm
12:00 PM 70.2°F21.2°C 46.6°F8.1°C 43% 10.9 mph NE17.5 kmh NE 21.0 mph33.8 kmh 30.03 in1016.9 mb 0.00 in0.0 mm 0.00 in0.0 mm 0.00 in0.0 mm
12:05 PM 70.4°F21.3°C 46.8°F8.2°C 43% 12.0 mph NE19.3 kmh NE 21.0 mph33.8 kmh 30.03 in1016.9 mb 0.00 in0.0 mm 0.00 in0.0 mm 0.00 in0.0 mm
12:10 PM 70.8°F21.6°C 47.2°F8.4°C 43% 11.5 mph NE18.5 kmh NE 20.0 mph32.2 kmh 30.03 in1016.9 mb 0.00 in0.0 mm 0.00 in0.0 mm 0.00 in0.0 mm
12:15 PM 71.1°F21.7°C 47.5°F8.6°C 43% 10.4 mph NE16.7 kmh NE 17.0 mph27.4 kmh 30.03 in1016.9 mb 0.00 in0.0 mm 0.00 in0.0 mm 0.00 in0.0 mm
12:20 PM 70.9°F21.6°C 46.7°F8.2°C 42% 10.2 mph NE16.4 kmh NE 19.0 mph30.6 kmh 30.03 in1016.9 mb 0.00 in0.0 mm 0.00 in0.0 mm 0.00 in0.0 mm
12:25 PM 70.9°F21.6°C 46.7°F8.2°C 42% 11.1 mph NE17.9 kmh NE 19.0 mph30.6 kmh 30.03 in1016.9 mb 0.00 in0.0 mm 0.00 in0.0 mm 0.00 in0.0 mm
12:30 PM 71.2°F21.8°C 47.6°F8.7°C 43% 12.0 mph NE19.3 kmh NE 18.0 mph29.0 kmh 30.03 in1016.9 mb 0.00 in0.0 mm 0.00 in0.0 mm 0.00 in0.0 mm
12:35 PM 71.3°F21.8°C 47.0°F8.3°C 42% 11.5 mph NE18.5 kmh NE 20.0 mph32.2 kmh 30.03 in1016.9 mb 0.00 in0.0 mm 0.00 in0.0 mm 0.00 in0.0 mm
12:40 PM 71.4°F21.9°C 47.1°F8.4°C 42% 10.9 mph NE17.5 kmh NE 20.0 mph32.2 kmh 30.03 in1016.9 mb 0.00 in0.0 mm 0.00 in0.0 mm 0.00 in0.0 mm
12:45 PM 71.2°F21.8°C 46.9°F8.3°C 42% 11.6 mph NE18.7 kmh NE 21.0 mph33.8 kmh 30.02 in1016.6 mb 0.00 in0.0 mm 0.00 in0.0 mm 0.00 in0.0 mm
12:50 PM 71.2°F21.8°C 46.3°F7.9°C 41% 12.5 mph NE20.1 kmh NE 21.0 mph33.8 kmh 30.02 in1016.6 mb 0.00 in0.0 mm 0.00 in0.0 mm 0.00 in0.0 mm
12:55 PM 71.5°F21.9°C 47.2°F8.4°C 42% 12.4 mph NE20.0 kmh NE 19.0 mph30.6 kmh 30.02 in1016.6 mb 0.00 in0.0 mm 0.00 in0.0 mm 0.00 in0.0 mm
01:00 PM 71.5°F21.9°C 47.2°F8.4°C 42% 11.9 mph NE19.2 kmh NE 18.0 mph29.0 kmh 30.02 in1016.6 mb 0.00 in0.0 mm 0.00 in0.0 mm 0.00 in0.0 mm
01:05 PM 71.7°F22.1°C 46.7°F8.2°C 41% 11.4 mph NE18.3 kmh NE 18.0 mph29.0 kmh 30.02 in1016.6 mb 0.00 in0.0 mm 0.00 in0.0 mm 0.00 in0.0 mm
01:10 PM 71.6°F22.0°C 46.6°F8.1°C 41% 11.0 mph NE17.7 kmh NE 19.0 mph30.6 kmh 30.03 in1016.9 mb 0.00 in0.0 mm 0.00 in0.0 mm 0.00 in0.0 mm
01:15 PM 71.7°F22.1°C 46.7°F8.2°C 41% 11.0 mph NE17.7 kmh NE 19.0 mph30.6 kmh 30.03 in1016.9 mb 0.00 in0.0 mm 0.00 in0.0 mm 0.00 in0.0 mm
01:20 PM 71.8°F22.1°C 46.8°F8.2°C 41% 10.7 mph NE17.2 kmh NE 17.0 mph27.4 kmh 30.02 in1016.6 mb 0.00 in0.0 mm 0.00 in0.0 mm 0.00 in0.0 mm
01:25 PM 71.8°F22.1°C 46.8°F8.2°C 41% 10.4 mph NE16.7 kmh NE 16.0 mph25.7 kmh 30.03 in1016.9 mb 0.00 in0.0 mm 0.00 in0.0 mm 0.00 in0.0 mm
01:30 PM 71.8°F22.1°C 46.8°F8.2°C 41% 10.6 mph NE17.1 kmh NE 17.0 mph27.4 kmh 30.02 in1016.6 mb 0.00 in0.0 mm 0.00 in0.0 mm 0.00 in0.0 mm
01:35 PM 72.0°F22.2°C 47.6°F8.7°C 42% 10.4 mph NE16.7 kmh NE 17.0 mph27.4 kmh 30.02 in1016.6 mb 0.00 in0.0 mm 0.00 in0.0 mm 0.00 in0.0 mm
01:40 PM 72.0°F22.2°C 47.0°F8.3°C 41% 9.7 mph NE15.6 kmh NE 17.0 mph27.4 kmh 30.02 in1016.6 mb 0.00 in0.0 mm 0.00 in0.0 mm 0.00 in0.0 mm
01:45 PM 72.0°F22.2°C 47.0°F8.3°C 41% 10.1 mph NE16.3 kmh NE 20.0 mph32.2 kmh 30.02 in1016.6 mb 0.00 in0.0 mm 0.00 in0.0 mm 0.00 in0.0 mm
01:50 PM 71.8°F22.1°C 46.8°F8.2°C 41% 11.4 mph NE18.3 kmh NE 20.0 mph32.2 kmh 30.01 in1016.3 mb 0.00 in0.0 mm 0.00 in0.0 mm 0.00 in0.0 mm
01:55 PM 72.1°F22.3°C 47.1°F8.4°C 41% 12.5 mph NE20.1 kmh NE 22.0 mph35.4 kmh 30.01 in1016.3 mb 0.00 in0.0 mm 0.00 in0.0 mm 0.00 in0.0 mm
02:00 PM 72.1°F22.3°C 47.1°F8.4°C 41% 12.9 mph NE20.8 kmh NE 22.0 mph35.4 kmh 30.01 in1016.3 mb 0.00 in0.0 mm 0.00 in0.0 mm 0.00 in0.0 mm
02:05 PM 71.8°F22.1°C 46.8°F8.2°C 41% 13.3 mph NE21.4 kmh NE 22.0 mph35.4 kmh 30.00 in1015.9 mb 0.00 in0.0 mm 0.00 in0.0 mm 0.00 in0.0 mm
02:10 PM 72.0°F22.2°C 47.0°F8.3°C 41% 13.3 mph NE21.4 kmh NE 22.0 mph35.4 kmh 30.00 in1015.9 mb 0.00 in0.0 mm 0.00 in0.0 mm 0.00 in0.0 mm
02:15 PM 72.1°F22.3°C 47.1°F8.4°C 41% 12.7 mph NE20.4 kmh NE 22.0 mph35.4 kmh 30.00 in1015.9 mb 0.00 in0.0 mm 0.00 in0.0 mm 0.00 in0.0 mm
02:20 PM 72.2°F22.3°C 47.2°F8.4°C 41% 12.2 mph NE19.6 kmh NE 22.0 mph35.4 kmh 30.00 in1015.9 mb 0.00 in0.0 mm 0.00 in0.0 mm 0.00 in0.0 mm
02:25 PM 72.0°F22.2°C 47.0°F8.3°C 41% 12.3 mph NE19.8 kmh NE 22.0 mph35.4 kmh 29.99 in1015.6 mb 0.00 in0.0 mm 0.00 in0.0 mm 0.00 in0.0 mm
02:30 PM 72.0°F22.2°C 47.0°F8.3°C 41% 12.8 mph NE20.6 kmh NE 22.0 mph35.4 kmh 29.99 in1015.6 mb 0.00 in0.0 mm 0.00 in0.0 mm 0.00 in0.0 mm
02:35 PM 72.1°F22.3°C 47.1°F8.4°C 41% 12.7 mph NE20.4 kmh NE 21.0 mph33.8 kmh 29.99 in1015.6 mb 0.00 in0.0 mm 0.00 in0.0 mm 0.00 in0.0 mm
02:40 PM 72.2°F22.3°C 46.5°F8.1°C 40% 11.7 mph NE18.8 kmh NE 19.0 mph30.6 kmh 29.98 in1015.2 mb 0.00 in0.0 mm 0.00 in0.0 mm 0.00 in0.0 mm
02:45 PM 72.1°F22.3°C 47.1°F8.4°C 41% 11.1 mph NE17.9 kmh NE 19.0 mph30.6 kmh 29.98 in1015.2 mb 0.00 in0.0 mm 0.00 in0.0 mm 0.00 in0.0 mm
02:50 PM 72.0°F22.2°C 46.3°F7.9°C 40% 11.5 mph NE18.5 kmh NE 19.0 mph30.6 kmh 29.98 in1015.2 mb 0.00 in0.0 mm 0.00 in0.0 mm 0.00 in0.0 mm
02:55 PM 72.0°F22.2°C 45.7°F7.6°C 39% 11.5 mph NE18.5 kmh NE 19.0 mph30.6 kmh 29.99 in1015.6 mb 0.00 in0.0 mm 0.00 in0.0 mm 0.00 in0.0 mm
03:00 PM 72.1°F22.3°C 46.4°F8.0°C 40% 10.9 mph NE17.5 kmh NE 19.0 mph30.6 kmh 29.98 in1015.2 mb 0.00 in0.0 mm 0.00 in0.0 mm 0.00 in0.0 mm
03:05 PM 72.1°F22.3°C 46.4°F8.0°C 40% 10.6 mph NE17.1 kmh NE 19.0 mph30.6 kmh 29.98 in1015.2 mb 0.00 in0.0 mm 0.00 in0.0 mm 0.00 in0.0 mm
03:10 PM 72.1°F22.3°C 46.4°F8.0°C 40% 10.3 mph NE16.6 kmh NE 20.0 mph32.2 kmh 29.98 in1015.2 mb 0.00 in0.0 mm 0.00 in0.0 mm 0.00 in0.0 mm
03:15 PM 72.1°F22.3°C 47.1°F8.4°C 41% 10.0 mph NE16.1 kmh NE 20.0 mph32.2 kmh 29.98 in1015.2 mb 0.00 in0.0 mm 0.00 in0.0 mm 0.00 in0.0 mm
03:20 PM 72.6°F22.6°C 48.2°F9.0°C 42% 9.9 mph NE15.9 kmh NE 16.0 mph25.7 kmh 29.98 in1015.2 mb 0.00 in0.0 mm 0.00 in0.0 mm 0.00 in0.0 mm
03:25 PM 72.1°F22.3°C 46.4°F8.0°C 40% 9.6 mph NE15.4 kmh NE 18.0 mph29.0 kmh 29.98 in1015.2 mb 0.00 in0.0 mm 0.00 in0.0 mm 0.00 in0.0 mm
03:30 PM 71.8°F22.1°C 47.5°F8.6°C 42% 10.1 mph NE16.3 kmh NE 18.0 mph29.0 kmh 29.97 in1014.9 mb 0.00 in0.0 mm 0.00 in0.0 mm 0.00 in0.0 mm
03:35 PM 71.7°F22.1°C 47.4°F8.6°C 42% 11.3 mph NE18.2 kmh NE 18.0 mph29.0 kmh 29.97 in1014.9 mb 0.00 in0.0 mm 0.00 in0.0 mm 0.00 in0.0 mm
03:40 PM 71.8°F22.1°C 46.8°F8.2°C 41% 11.5 mph NE18.5 kmh NE 18.0 mph29.0 kmh 29.97 in1014.9 mb 0.00 in0.0 mm 0.00 in0.0 mm 0.00 in0.0 mm
03:45 PM 71.7°F22.1°C 46.7°F8.2°C 41% 10.4 mph NE16.7 kmh NE 17.0 mph27.4 kmh 29.97 in1014.9 mb 0.00 in0.0 mm 0.00 in0.0 mm 0.00 in0.0 mm
03:50 PM 71.6°F22.0°C 47.3°F8.5°C 42% 9.5 mph NE15.3 kmh NE 17.0 mph27.4 kmh 29.97 in1014.9 mb 0.00 in0.0 mm 0.00 in0.0 mm 0.00 in0.0 mm
03:55 PM 71.4°F21.9°C 47.1°F8.4°C 42% 9.6 mph NE15.4 kmh NE 17.0 mph27.4 kmh 29.97 in1014.9 mb 0.00 in0.0 mm 0.00 in0.0 mm 0.00 in0.0 mm
04:00 PM 71.5°F21.9°C 47.8°F8.8°C 43% 10.0 mph NE16.1 kmh NE 18.0 mph29.0 kmh 29.97 in1014.9 mb 0.00 in0.0 mm 0.00 in0.0 mm 0.00 in0.0 mm
04:05 PM 71.4°F21.9°C 47.1°F8.4°C 42% 9.8 mph NE15.8 kmh NE 18.0 mph29.0 kmh 29.97 in1014.9 mb 0.00 in0.0 mm 0.00 in0.0 mm 0.00 in0.0 mm
04:10 PM 71.4°F21.9°C 47.1°F8.4°C 42% 9.8 mph NE15.8 kmh NE 18.0 mph29.0 kmh 29.98 in1015.2 mb 0.00 in0.0 mm 0.00 in0.0 mm 0.00 in0.0 mm
04:15 PM 71.2°F21.8°C 46.9°F8.3°C 42% 10.0 mph NE16.1 kmh NE 17.0 mph27.4 kmh 29.98 in1015.2 mb 0.00 in0.0 mm 0.00 in0.0 mm 0.00 in0.0 mm
04:20 PM 70.9°F21.6°C 47.3°F8.5°C 43% 10.0 mph NE16.1 kmh NE 17.0 mph27.4 kmh 29.97 in1014.9 mb 0.00 in0.0 mm 0.00 in0.0 mm 0.00 in0.0 mm
04:25 PM 71.0°F21.7°C 46.7°F8.2°C 42% 10.2 mph NE16.4 kmh NE 17.0 mph27.4 kmh 29.97 in1014.9 mb 0.00 in0.0 mm 0.00 in0.0 mm 0.00 in0.0 mm
04:30 PM 71.2°F21.8°C 47.6°F8.7°C 43% 9.7 mph NE15.6 kmh NE 16.0 mph25.7 kmh 29.98 in1015.2 mb 0.00 in0.0 mm 0.00 in0.0 mm 0.00 in0.0 mm
04:35 PM 71.1°F21.7°C 46.2°F7.9°C 41% 8.9 mph NE14.3 kmh NE 16.0 mph25.7 kmh 29.97 in1014.9 mb 0.00 in0.0 mm 0.00 in0.0 mm 0.00 in0.0 mm
04:40 PM 71.1°F21.7°C 46.8°F8.2°C 42% 8.9 mph NE14.3 kmh NE 16.0 mph25.7 kmh 29.97 in1014.9 mb 0.00 in0.0 mm 0.00 in0.0 mm 0.00 in0.0 mm
04:45 PM 70.8°F21.6°C 47.8°F8.8°C 44% 9.1 mph NE14.6 kmh NE 20.0 mph32.2 kmh 29.97 in1014.9 mb 0.00 in0.0 mm 0.00 in0.0 mm 0.00 in0.0 mm
04:50 PM 70.8°F21.6°C 47.2°F8.4°C 43% 9.6 mph NE15.4 kmh NE 20.0 mph32.2 kmh 29.97 in1014.9 mb 0.00 in0.0 mm 0.00 in0.0 mm 0.00 in0.0 mm
04:55 PM 70.6°F21.4°C 47.0°F8.3°C 43% 9.9 mph NE15.9 kmh NE 19.0 mph30.6 kmh 29.97 in1014.9 mb 0.00 in0.0 mm 0.00 in0.0 mm 0.00 in0.0 mm
05:00 PM 70.3°F21.3°C 46.1°F7.8°C 42% 9.5 mph NE15.3 kmh NE 19.0 mph30.6 kmh 29.98 in1015.2 mb 0.00 in0.0 mm 0.00 in0.0 mm 0.00 in0.0 mm
05:05 PM 70.0°F21.1°C 46.5°F8.1°C 43% 9.3 mph NE15.0 kmh NE 17.0 mph27.4 kmh 29.97 in1014.9 mb 0.00 in0.0 mm 0.00 in0.0 mm 0.00 in0.0 mm
05:10 PM 69.8°F21.0°C 46.3°F7.9°C 43% 9.7 mph NE15.6 kmh NE 18.0 mph29.0 kmh 29.97 in1014.9 mb 0.00 in0.0 mm 0.00 in0.0 mm 0.00 in0.0 mm
05:15 PM 69.5°F20.8°C 46.0°F7.8°C 43% 10.1 mph NE16.3 kmh NE 19.0 mph30.6 kmh 29.97 in1014.9 mb 0.00 in0.0 mm 0.00 in0.0 mm 0.00 in0.0 mm
05:20 PM 69.3°F20.7°C 45.8°F7.7°C 43% 10.6 mph NE17.1 kmh NE 19.0 mph30.6 kmh 29.97 in1014.9 mb 0.00 in0.0 mm 0.00 in0.0 mm 0.00 in0.0 mm
05:25 PM 69.1°F20.6°C 46.9°F8.3°C 45% 10.8 mph NE17.4 kmh NE 17.0 mph27.4 kmh 29.96 in1014.6 mb 0.00 in0.0 mm 0.00 in0.0 mm 0.00 in0.0 mm
05:30 PM 68.9°F20.5°C 46.7°F8.2°C 45% 10.0 mph NE16.1 kmh NE 17.0 mph27.4 kmh 29.96 in1014.6 mb 0.00 in0.0 mm 0.00 in0.0 mm 0.00 in0.0 mm
05:35 PM 68.6°F20.3°C 46.4°F8.0°C 45% 9.9 mph NE15.9 kmh NE 19.0 mph30.6 kmh 29.96 in1014.6 mb 0.00 in0.0 mm 0.00 in0.0 mm 0.00 in0.0 mm
05:40 PM 68.3°F20.2°C 46.1°F7.8°C 45% 10.4 mph NE16.7 kmh NE 19.0 mph30.6 kmh 29.96 in1014.6 mb 0.00 in0.0 mm 0.00 in0.0 mm 0.00 in0.0 mm
05:45 PM 68.3°F20.2°C 46.1°F7.8°C 45% 10.3 mph NE16.6 kmh NE 17.0 mph27.4 kmh 29.97 in1014.9 mb 0.00 in0.0 mm 0.00 in0.0 mm 0.00 in0.0 mm
05:50 PM 68.1°F20.1°C 45.9°F7.7°C 45% 9.5 mph NE15.3 kmh NE 17.0 mph27.4 kmh 29.97 in1014.9 mb 0.00 in0.0 mm 0.00 in0.0 mm 0.00 in0.0 mm
05:55 PM 67.9°F19.9°C 45.8°F7.7°C 45% 8.5 mph NE13.7 kmh NE 17.0 mph27.4 kmh 29.97 in1014.9 mb 0.00 in0.0 mm 0.00 in0.0 mm 0.00 in0.0 mm
06:00 PM 67.7°F19.8°C 45.6°F7.6°C 45% 7.7 mph NE12.4 kmh NE 12.0 mph19.3 kmh 29.96 in1014.6 mb 0.00 in0.0 mm 0.00 in0.0 mm 0.00 in0.0 mm
06:05 PM 67.6°F19.8°C 45.5°F7.5°C 45% 6.7 mph NE10.8 kmh NE 12.0 mph19.3 kmh 29.96 in1014.6 mb 0.00 in0.0 mm 0.00 in0.0 mm 0.00 in0.0 mm
06:10 PM 67.4°F19.7°C 44.7°F7.1°C 44% 5.8 mph NE9.3 kmh NE 13.0 mph20.9 kmh 29.96 in1014.6 mb 0.00 in0.0 mm 0.00 in0.0 mm 0.00 in0.0 mm
06:15 PM 67.2°F19.6°C 44.5°F6.9°C 44% 6.1 mph NE9.8 kmh NE 13.0 mph20.9 kmh 29.97 in1014.9 mb 0.00 in0.0 mm 0.00 in0.0 mm 0.00 in0.0 mm
06:20 PM 67.1°F19.5°C 44.4°F6.9°C 44% 7.0 mph NE11.3 kmh NE 17.0 mph27.4 kmh 29.97 in1014.9 mb 0.00 in0.0 mm 0.00 in0.0 mm 0.00 in0.0 mm
06:25 PM 66.9°F19.4°C 44.9°F7.2°C 45% 7.7 mph NE12.4 kmh NE 17.0 mph27.4 kmh 29.97 in1014.9 mb 0.00 in0.0 mm 0.00 in0.0 mm 0.00 in0.0 mm
06:30 PM 66.7°F19.3°C 44.7°F7.1°C 45% 7.7 mph NE12.4 kmh NE 14.0 mph22.5 kmh 29.97 in1014.9 mb 0.00 in0.0 mm 0.00 in0.0 mm 0.00 in0.0 mm
06:35 PM 66.5°F19.2°C 44.5°F6.9°C 45% 6.7 mph NE10.8 kmh NE 14.0 mph22.5 kmh 29.97 in1014.9 mb 0.00 in0.0 mm 0.00 in0.0 mm 0.00 in0.0 mm
06:40 PM 66.4°F19.1°C 43.8°F6.6°C 44% 6.8 mph NE10.9 kmh NE 17.0 mph27.4 kmh 29.96 in1014.6 mb 0.00 in0.0 mm 0.00 in0.0 mm 0.00 in0.0 mm
06:45 PM 66.2°F19.0°C 44.2°F6.8°C 45% 8.2 mph NE13.2 kmh NE 17.0 mph27.4 kmh 29.97 in1014.9 mb 0.00 in0.0 mm 0.00 in0.0 mm 0.00 in0.0 mm
06:50 PM 66.1°F18.9°C 44.1°F6.7°C 45% 8.0 mph NE12.9 kmh NE 14.0 mph22.5 kmh 29.96 in1014.6 mb 0.00 in0.0 mm 0.00 in0.0 mm 0.00 in0.0 mm
06:55 PM 66.0°F18.9°C 43.5°F6.4°C 44% 7.0 mph NE11.3 kmh NE 15.0 mph24.1 kmh 29.96 in1014.6 mb 0.00 in0.0 mm 0.00 in0.0 mm 0.00 in0.0 mm
07:00 PM 65.9°F18.8°C 43.9°F6.6°C 45% 7.9 mph NE12.7 kmh NE 15.0 mph24.1 kmh 29.96 in1014.6 mb 0.00 in0.0 mm 0.00 in0.0 mm 0.00 in0.0 mm
07:05 PM 65.8°F18.8°C 43.9°F6.6°C 45% 8.9 mph NE14.3 kmh NE 18.0 mph29.0 kmh 29.96 in1014.6 mb 0.00 in0.0 mm 0.00 in0.0 mm 0.00 in0.0 mm
07:10 PM 65.7°F18.7°C 43.8°F6.6°C 45% 9.2 mph NE14.8 kmh NE 21.0 mph33.8 kmh 29.96 in1014.6 mb 0.00 in0.0 mm 0.00 in0.0 mm 0.00 in0.0 mm
07:15 PM 65.5°F18.6°C 43.6°F6.4°C 45% 9.7 mph NE15.6 kmh NE 21.0 mph33.8 kmh 29.96 in1014.6 mb 0.00 in0.0 mm 0.00 in0.0 mm 0.00 in0.0 mm
07:20 PM 65.4°F18.6°C 43.5°F6.4°C 45% 9.6 mph NE15.4 kmh NE 21.0 mph33.8 kmh 29.96 in1014.6 mb 0.00 in0.0 mm 0.00 in0.0 mm 0.00 in0.0 mm
07:25 PM 65.3°F18.5°C 43.4°F6.3°C 45% 8.3 mph NE13.4 kmh NE 17.0 mph27.4 kmh 29.96 in1014.6 mb 0.00 in0.0 mm 0.00 in0.0 mm 0.00 in0.0 mm
07:30 PM 65.2°F18.4°C 42.7°F5.9°C 44% 7.4 mph NE11.9 kmh NE 17.0 mph27.4 kmh 29.96 in1014.6 mb 0.00 in0.0 mm 0.00 in0.0 mm 0.00 in0.0 mm
07:35 PM 65.1°F18.4°C 42.6°F5.9°C 44% 7.6 mph NE12.2 kmh NE 15.0 mph24.1 kmh 29.95 in1014.2 mb 0.00 in0.0 mm 0.00 in0.0 mm 0.00 in0.0 mm
07:40 PM 64.9°F18.3°C 42.5°F5.8°C 44% 7.2 mph NE11.6 kmh NE 17.0 mph27.4 kmh 29.95 in1014.2 mb 0.00 in0.0 mm 0.00 in0.0 mm 0.00 in0.0 mm
07:45 PM 65.0°F18.3°C 42.5°F5.8°C 44% 6.7 mph NE10.8 kmh NE 19.0 mph30.6 kmh 29.95 in1014.2 mb 0.00 in0.0 mm 0.00 in0.0 mm 0.00 in0.0 mm
07:50 PM 64.9°F18.3°C 41.9°F5.5°C 43% 7.9 mph NE12.7 kmh NE 21.0 mph33.8 kmh 29.95 in1014.2 mb 0.00 in0.0 mm 0.00 in0.0 mm 0.00 in0.0 mm
07:55 PM 65.0°F18.3°C 41.9°F5.5°C 43% 9.8 mph NE15.8 kmh NE 21.0 mph33.8 kmh 29.95 in1014.2 mb 0.00 in0.0 mm 0.00 in0.0 mm 0.00 in0.0 mm
08:00 PM 65.0°F18.3°C 41.3°F5.2°C 42% 10.8 mph NE17.4 kmh NE 20.0 mph32.2 kmh 29.94 in1013.9 mb 0.00 in0.0 mm 0.00 in0.0 mm 0.00 in0.0 mm
08:05 PM 65.0°F18.3°C 41.3°F5.2°C 42% 11.5 mph NE18.5 kmh NE 23.0 mph37.0 kmh 29.94 in1013.9 mb 0.00 in0.0 mm 0.00 in0.0 mm 0.00 in0.0 mm
08:10 PM 64.9°F18.3°C 41.2°F5.1°C 42% 12.5 mph NE20.1 kmh NE 24.0 mph38.6 kmh 29.94 in1013.9 mb 0.00 in0.0 mm 0.00 in0.0 mm 0.00 in0.0 mm
08:15 PM 64.9°F18.3°C 41.2°F5.1°C 42% 12.0 mph NE19.3 kmh NE 24.0 mph38.6 kmh 29.94 in1013.9 mb 0.00 in0.0 mm 0.00 in0.0 mm 0.00 in0.0 mm
08:20 PM 64.9°F18.3°C 41.2°F5.1°C 42% 10.4 mph NE16.7 kmh NE 21.0 mph33.8 kmh 29.94 in1013.9 mb 0.00 in0.0 mm 0.00 in0.0 mm 0.00 in0.0 mm
08:25 PM 64.8°F18.2°C 41.2°F5.1°C 42% 9.8 mph NE15.8 kmh NE 22.0 mph35.4 kmh 29.94 in1013.9 mb 0.00 in0.0 mm 0.00 in0.0 mm 0.00 in0.0 mm
08:30 PM 64.8°F18.2°C 41.2°F5.1°C 42% 9.8 mph NE15.8 kmh NE 22.0 mph35.4 kmh 29.95 in1014.2 mb 0.00 in0.0 mm 0.00 in0.0 mm 0.00 in0.0 mm
08:35 PM 64.8°F18.2°C 41.2°F5.1°C 42% 9.1 mph NE14.6 kmh NE 21.0 mph33.8 kmh 29.94 in1013.9 mb 0.00 in0.0 mm 0.00 in0.0 mm 0.00 in0.0 mm
08:40 PM 64.8°F18.2°C 40.5°F4.7°C 41% 8.4 mph NE13.5 kmh NE 23.0 mph37.0 kmh 29.94 in1013.9 mb 0.00 in0.0 mm 0.00 in0.0 mm 0.00 in0.0 mm
08:45 PM 64.8°F18.2°C 40.5°F4.7°C 41% 9.0 mph NE14.5 kmh NE 23.0 mph37.0 kmh 29.95 in1014.2 mb 0.00 in0.0 mm 0.00 in0.0 mm 0.00 in0.0 mm
08:50 PM 64.7°F18.2°C 40.4°F4.7°C 41% 10.1 mph NE16.3 kmh NE 21.0 mph33.8 kmh 29.95 in1014.2 mb 0.00 in0.0 mm 0.00 in0.0 mm 0.00 in0.0 mm
08:55 PM 64.7°F18.2°C 41.1°F5.1°C 42% 10.4 mph NE16.7 kmh NE 22.0 mph35.4 kmh 29.94 in1013.9 mb 0.00 in0.0 mm 0.00 in0.0 mm 0.00 in0.0 mm
09:00 PM 64.7°F18.2°C 40.4°F4.7°C 41% 10.9 mph NE17.5 kmh NE 25.0 mph40.2 kmh 29.94 in1013.9 mb 0.00 in0.0 mm 0.00 in0.0 mm 0.00 in0.0 mm
09:05 PM 64.7°F18.2°C 40.4°F4.7°C 41% 12.9 mph NE20.8 kmh NE 25.0 mph40.2 kmh 29.93 in1013.5 mb 0.00 in0.0 mm 0.00 in0.0 mm 0.00 in0.0 mm
09:10 PM 64.6°F18.1°C 41.0°F5.0°C 42% 14.7 mph NE23.7 kmh NE 29.0 mph46.7 kmh 29.93 in1013.5 mb 0.00 in0.0 mm 0.00 in0.0 mm 0.00 in0.0 mm
09:15 PM 64.5°F18.1°C 40.9°F4.9°C 42% 15.1 mph NE24.3 kmh NE 29.0 mph46.7 kmh 29.94 in1013.9 mb 0.00 in0.0 mm 0.00 in0.0 mm 0.00 in0.0 mm
09:20 PM 64.5°F18.1°C 40.9°F4.9°C 42% 15.2 mph NE24.5 kmh NE 27.0 mph43.5 kmh 29.94 in1013.9 mb 0.00 in0.0 mm 0.00 in0.0 mm 0.00 in0.0 mm
09:25 PM 64.5°F18.1°C 40.9°F4.9°C 42% 15.6 mph NE25.1 kmh NE 26.0 mph41.8 kmh 29.95 in1014.2 mb 0.00 in0.0 mm 0.00 in0.0 mm 0.00 in0.0 mm
09:30 PM 64.4°F18.0°C 40.8°F4.9°C 42% 15.6 mph NE25.1 kmh NE 29.0 mph46.7 kmh 29.94 in1013.9 mb 0.00 in0.0 mm 0.00 in0.0 mm 0.00 in0.0 mm
09:35 PM 64.3°F17.9°C 40.7°F4.8°C 42% 15.2 mph NE24.5 kmh NE 29.0 mph46.7 kmh 29.94 in1013.9 mb 0.00 in0.0 mm 0.00 in0.0 mm 0.00 in0.0 mm
09:40 PM 64.3°F17.9°C 40.7°F4.8°C 42% 15.4 mph NE24.8 kmh NE 31.0 mph49.9 kmh 29.95 in1014.2 mb 0.00 in0.0 mm 0.00 in0.0 mm 0.00 in0.0 mm
09:45 PM 64.3°F17.9°C 40.7°F4.8°C 42% 16.0 mph NE25.7 kmh NE 31.0 mph49.9 kmh 29.95 in1014.2 mb 0.00 in0.0 mm 0.00 in0.0 mm 0.00 in0.0 mm
09:50 PM 64.3°F17.9°C 40.7°F4.8°C 42% 15.6 mph NE25.1 kmh NE 26.0 mph41.8 kmh 29.95 in1014.2 mb 0.00 in0.0 mm 0.00 in0.0 mm 0.00 in0.0 mm
09:55 PM 64.3°F17.9°C 40.7°F4.8°C 42% 14.7 mph NE23.7 kmh NE 26.0 mph41.8 kmh 29.94 in1013.9 mb 0.00 in0.0 mm 0.00 in0.0 mm 0.00 in0.0 mm
10:00 PM 64.2°F17.9°C 41.2°F5.1°C 43% 14.7 mph NE23.7 kmh NE 29.0 mph46.7 kmh 29.93 in1013.5 mb 0.00 in0.0 mm 0.00 in0.0 mm 0.00 in0.0 mm
10:05 PM 64.3°F17.9°C 41.9°F5.5°C 44% 15.2 mph NE24.5 kmh NE 29.0 mph46.7 kmh 29.92 in1013.2 mb 0.00 in0.0 mm 0.00 in0.0 mm 0.00 in0.0 mm
10:10 PM 64.4°F18.0°C 42.0°F5.6°C 44% 16.3 mph NE26.2 kmh NE 33.0 mph53.1 kmh 29.91 in1012.9 mb 0.00 in0.0 mm 0.00 in0.0 mm 0.00 in0.0 mm
10:15 PM 64.3°F17.9°C 41.9°F5.5°C 44% 17.5 mph NE28.2 kmh NE 33.0 mph53.1 kmh 29.91 in1012.9 mb 0.00 in0.0 mm 0.00 in0.0 mm 0.00 in0.0 mm
10:20 PM 64.4°F18.0°C 42.0°F5.6°C 44% 17.1 mph NE27.5 kmh NE 28.0 mph45.1 kmh 29.92 in1013.2 mb 0.00 in0.0 mm 0.00 in0.0 mm 0.00 in0.0 mm
10:25 PM 64.3°F17.9°C 42.5°F5.8°C 45% 15.2 mph NE24.5 kmh NE 28.0 mph45.1 kmh 29.92 in1013.2 mb 0.00 in0.0 mm 0.00 in0.0 mm 0.00 in0.0 mm
10:30 PM 64.4°F18.0°C 42.6°F5.9°C 45% 14.1 mph NE22.7 kmh NE 28.0 mph45.1 kmh 29.92 in1013.2 mb 0.00 in0.0 mm 0.00 in0.0 mm 0.00 in0.0 mm
10:35 PM 64.5°F18.1°C 42.7°F5.9°C 45% 14.4 mph NE23.2 kmh NE 27.0 mph43.5 kmh 29.91 in1012.9 mb 0.00 in0.0 mm 0.00 in0.0 mm 0.00 in0.0 mm
10:40 PM 64.5°F18.1°C 43.3°F6.3°C 46% 14.8 mph NE23.8 kmh NE 27.0 mph43.5 kmh 29.92 in1013.2 mb 0.00 in0.0 mm 0.00 in0.0 mm 0.00 in0.0 mm
10:45 PM 64.5°F18.1°C 43.3°F6.3°C 46% 14.9 mph NE24.0 kmh NE 30.0 mph48.3 kmh 29.92 in1013.2 mb 0.00 in0.0 mm 0.00 in0.0 mm 0.00 in0.0 mm
10:50 PM 64.5°F18.1°C 43.8°F6.6°C 47% 15.0 mph NE24.1 kmh NE 30.0 mph48.3 kmh 29.91 in1012.9 mb 0.00 in0.0 mm 0.00 in0.0 mm 0.00 in0.0 mm
10:55 PM 64.6°F18.1°C 43.9°F6.6°C 47% 15.4 mph NE24.8 kmh NE 25.0 mph40.2 kmh 29.91 in1012.9 mb 0.00 in0.0 mm 0.00 in0.0 mm 0.00 in0.0 mm
11:00 PM 64.5°F18.1°C 43.8°F6.6°C 47% 15.4 mph NE24.8 kmh NE 24.0 mph38.6 kmh 29.91 in1012.9 mb 0.00 in0.0 mm 0.00 in0.0 mm 0.00 in0.0 mm
11:05 PM 64.5°F18.1°C 43.8°F6.6°C 47% 14.3 mph NE23.0 kmh NE 25.0 mph40.2 kmh 29.91 in1012.9 mb 0.00 in0.0 mm 0.00 in0.0 mm 0.00 in0.0 mm
11:10 PM 64.5°F18.1°C 43.8°F6.6°C 47% 13.3 mph NE21.4 kmh NE 25.0 mph40.2 kmh 29.91 in1012.9 mb 0.00 in0.0 mm 0.00 in0.0 mm 0.00 in0.0 mm
11:15 PM 64.6°F18.1°C 43.3°F6.3°C 46% 13.1 mph NE21.1 kmh NE 31.0 mph49.9 kmh 29.91 in1012.9 mb 0.00 in0.0 mm 0.00 in0.0 mm 0.00 in0.0 mm
11:20 PM 64.6°F18.1°C 43.3°F6.3°C 46% 14.0 mph NE22.5 kmh NE 31.0 mph49.9 kmh 29.91 in1012.9 mb 0.00 in0.0 mm 0.00 in0.0 mm 0.00 in0.0 mm
11:25 PM 64.6°F18.1°C 43.3°F6.3°C 46% 15.3 mph NE24.6 kmh NE 25.0 mph40.2 kmh 29.92 in1013.2 mb 0.00 in0.0 mm 0.00 in0.0 mm 0.00 in0.0 mm
11:30 PM 64.6°F18.1°C 43.9°F6.6°C 47% 15.5 mph NE24.9 kmh NE 25.0 mph40.2 kmh 29.91 in1012.9 mb 0.00 in0.0 mm 0.00 in0.0 mm 0.00 in0.0 mm
11:35 PM 64.5°F18.1°C 43.8°F6.6°C 47% 14.9 mph NE24.0 kmh NE 25.0 mph40.2 kmh 29.92 in1013.2 mb 0.00 in0.0 mm 0.00 in0.0 mm 0.00 in0.0 mm
11:40 PM 64.6°F18.1°C 43.9°F6.6°C 47% 15.1 mph NE24.3 kmh NE 25.0 mph40.2 kmh 29.92 in1013.2 mb 0.00 in0.0 mm 0.00 in0.0 mm 0.00 in0.0 mm
11:45 PM 64.6°F18.1°C 43.9°F6.6°C 47% 15.5 mph NE24.9 kmh NE 25.0 mph40.2 kmh 29.92 in1013.2 mb 0.00 in0.0 mm 0.00 in0.0 mm 0.00 in0.0 mm
11:50 PM 64.7°F18.2°C 43.4°F6.3°C 46% 15.6 mph NE25.1 kmh NE 25.0 mph40.2 kmh 29.92 in1013.2 mb 0.00 in0.0 mm 0.00 in0.0 mm 0.00 in0.0 mm
11:55 PM 64.6°F18.1°C 43.9°F6.6°C 47% 15.4 mph NE24.8 kmh NE 25.0 mph40.2 kmh 29.93 in1013.5 mb 0.00 in0.0 mm 0.00 in0.0 mm 0.00 in0.0 mm